Wetterdaten: Woche 08.01.18 - 14.01.18 (KW2)
Datum Zeit Temp. A. Feuchte A. Luftdruck Regen Wind Richtung Taupunkt Windchill Windben
08.01.2018 00:00 6,3 C 84 % 1024,7 hPa 0,0 l/m 0,1 km/h N 3,8 C 6,3 C 2,0 km/h
08.01.2018 01:00 6,2 C 84 % 1024,7 hPa 0,0 l/m 0,0 km/h N 3,7 C 6,2 C 0,0 km/h
08.01.2018 02:00 6,0 C 84 % 1024,9 hPa 0,0 l/m 0,0 km/h N 3,5 C 6,0 C 0,0 km/h
08.01.2018 03:00 5,9 C 84 % 1024,7 hPa 0,5 l/m 0,0 km/h N 3,5 C 5,9 C 0,0 km/h
08.01.2018 04:00 5,9 C 84 % 1024,9 hPa 0,0 l/m 0,0 km/h N 3,4 C 5,9 C 0,8 km/h
08.01.2018 05:00 5,8 C 84 % 1024,9 hPa 0,3 l/m 0,0 km/h N 3,3 C 5,8 C 0,0 km/h
08.01.2018 06:00 6,0 C 84 % 1025,2 hPa 0,3 l/m 0,0 km/h N 3,5 C 6,0 C 0,8 km/h
08.01.2018 07:00 6,1 C 84 % 1025,6 hPa 0,5 l/m 0,0 km/h N 3,6 C 6,1 C 1,2 km/h
08.01.2018 08:00 6,0 C 84 % 1026,3 hPa 0,0 l/m 0,0 km/h N 3,5 C 6,0 C 1,2 km/h
08.01.2018 09:00 5,9 C 84 % 1026,6 hPa 0,3 l/m 0,0 km/h N 3,5 C 5,9 C 1,6 km/h
08.01.2018 10:00 6,0 C 84 % 1026,6 hPa 0,3 l/m 0,0 km/h N 3,5 C 6,0 C 0,0 km/h
08.01.2018 11:00 6,2 C 84 % 1026,4 hPa 0,0 l/m 0,0 km/h N 3,7 C 6,2 C 0,4 km/h
08.01.2018 12:00 6,4 C 84 % 1025,9 hPa 0,0 l/m 0,1 km/h N 3,9 C 6,4 C 2,4 km/h
08.01.2018 13:00 6,3 C 84 % 1025,6 hPa 0,0 l/m 0,3 km/h N 3,8 C 6,3 C 5,2 km/h
08.01.2018 14:00 6,0 C 84 % 1025,4 hPa 0,3 l/m 0,2 km/h N 3,5 C 6,0 C 3,2 km/h
08.01.2018 15:00 5,8 C 84 % 1025,9 hPa 0,3 l/m 0,1 km/h N 3,3 C 5,8 C 2,4 km/h
08.01.2018 16:00 5,7 C 84 % 1026,1 hPa 0,3 l/m 0,1 km/h N 3,2 C 5,7 C 1,2 km/h
08.01.2018 17:00 5,7 C 84 % 1026,3 hPa 0,3 l/m 0,0 km/h N 3,2 C 5,7 C 2,0 km/h
08.01.2018 18:00 5,4 C 84 % 1026,6 hPa 0,5 l/m 0,0 km/h N 3,0 C 5,4 C 0,0 km/h
08.01.2018 19:00 5,3 C 84 % 1026,8 hPa 0,0 l/m 0,0 km/h N 2,8 C 5,3 C 0,0 km/h
08.01.2018 20:00 5,2 C 85 % 1027,0 hPa 0,3 l/m 0,0 km/h N 2,8 C 5,2 C 0,4 km/h
08.01.2018 21:00 5,4 C 84 % 1027,0 hPa 0,0 l/m 0,0 km/h N 3,0 C 5,4 C 1,2 km/h
08.01.2018 22:00 5,8 C 85 % 1027,1 hPa 0,0 l/m 0,1 km/h N 3,5 C 5,8 C 4,0 km/h
08.01.2018 23:00 5,8 C 85 % 1027,0 hPa 0,0 l/m 0,1 km/h N 3,5 C 5,8 C 4,8 km/h
09.01.2018 00:00 5,7 C 85 % 1027,0 hPa 0,0 l/m 0,9 km/h N 3,3 C 5,7 C 6,4 km/h
09.01.2018 01:00 5,8 C 84 % 1027,0 hPa 0,0 l/m 3,0 km/h N 3,3 C 5,8 C 7,2 km/h
09.01.2018 02:00 5,9 C 84 % 1026,8 hPa 0,0 l/m 1,1 km/h N 3,4 C 5,9 C 6,0 km/h
09.01.2018 03:00 6,1 C 85 % 1026,9 hPa 0,0 l/m 0,6 km/h N 3,6 C 6,1 C 5,2 km/h
09.01.2018 04:00 6,2 C 85 % 1026,7 hPa 0,0 l/m 0,5 km/h N 3,9 C 6,2 C 4,8 km/h
09.01.2018 05:00 6,2 C 85 % 1026,4 hPa 0,0 l/m 0,7 km/h N 3,9 C 6,2 C 5,2 km/h
09.01.2018 06:00 6,3 C 85 % 1026,0 hPa 0,0 l/m 0,5 km/h N 3,9 C 6,3 C 4,4 km/h
09.01.2018 07:00 6,3 C 85 % 1025,4 hPa 0,0 l/m 2,3 km/h N 3,9 C 6,3 C 8,5 km/h
09.01.2018 08:00 6,2 C 85 % 1025,1 hPa 0,0 l/m 1,1 km/h N 3,9 C 6,2 C 6,4 km/h
09.01.2018 09:00 6,3 C 85 % 1024,8 hPa 0,0 l/m 1,5 km/h N 3,9 C 6,3 C 7,2 km/h
09.01.2018 10:00 6,3 C 85 % 1024,2 hPa 0,0 l/m 0,8 km/h N 3,9 C 6,3 C 8,9 km/h
09.01.2018 11:00 6,5 C 84 % 1023,9 hPa 0,0 l/m 0,3 km/h N 4,0 C 6,5 C 4,8 km/h
09.01.2018 12:00 6,7 C 84 % 1023,0 hPa 0,0 l/m 1,1 km/h N 4,2 C 6,7 C 5,6 km/h
09.01.2018 13:00 6,9 C 84 % 1021,8 hPa 0,0 l/m 4,0 km/h N 4,4 C 6,9 C 10,9 km/h
09.01.2018 14:00 6,5 C 84 % 1021,6 hPa 0,0 l/m 3,8 km/h N 4,0 C 6,5 C 10,0 km/h
09.01.2018 15:00 6,3 C 84 % 1021,3 hPa 0,0 l/m 2,5 km/h N 3,8 C 6,3 C 10,8 km/h
09.01.2018 16:00 6,4 C 84 % 1021,8 hPa 0,0 l/m 1,3 km/h N 3,9 C 6,4 C 6,8 km/h
09.01.2018 17:00 6,4 C 84 % 1021,5 hPa 0,0 l/m 1,0 km/h N 3,9 C 6,4 C 5,6 km/h
09.01.2018 18:00 6,3 C 84 % 1020,9 hPa 0,0 l/m 1,5 km/h N 3,8 C 6,3 C 6,0 km/h
09.01.2018 19:00 6,3 C 84 % 1021,0 hPa 0,0 l/m 2,6 km/h N 3,7 C 6,3 C 9,7 km/h
09.01.2018 20:00 6,3 C 84 % 1020,8 hPa 0,0 l/m 2,7 km/h N 3,8 C 6,3 C 8,9 km/h
09.01.2018 21:00 6,2 C 84 % 1019,4 hPa 0,0 l/m 1,7 km/h N 3,7 C 6,2 C 9,6 km/h
09.01.2018 22:00 6,1 C 84 % 1018,9 hPa 0,0 l/m 2,4 km/h N 3,6 C 6,1 C 9,6 km/h
09.01.2018 23:00 6,1 C 83 % 1018,6 hPa 0,0 l/m 3,0 km/h N 3,5 C 6,1 C 13,3 km/h
10.01.2018 00:00 6,1 C 84 % 1018,0 hPa 0,0 l/m 2,4 km/h N 3,5 C 6,1 C 10,1 km/h
10.01.2018 01:00 6,1 C 84 % 1017,5 hPa 0,0 l/m 2,0 km/h N 3,6 C 6,1 C 12,9 km/h
10.01.2018 02:00 5,9 C 84 % 1017,4 hPa 0,0 l/m 3,1 km/h N 3,4 C 5,9 C 9,3 km/h
10.01.2018 03:00 5,7 C 84 % 1017,3 hPa 1,0 l/m 1,1 km/h N 3,2 C 5,7 C 5,2 km/h
10.01.2018 04:00 5,2 C 84 % 1016,6 hPa 1,3 l/m 0,2 km/h N 2,7 C 5,2 C 2,8 km/h
10.01.2018 05:00 4,9 C 84 % 1016,0 hPa 1,0 l/m 0,2 km/h N 2,5 C 4,9 C 3,6 km/h
10.01.2018 06:00 4,7 C 84 % 1015,8 hPa 1,0 l/m 0,5 km/h N 2,2 C 4,7 C 5,2 km/h
10.01.2018 07:00 4,4 C 84 % 1015,5 hPa 0,5 l/m 0,1 km/h N 1,9 C 4,4 C 3,2 km/h
10.01.2018 08:00 4,3 C 84 % 1015,3 hPa 0,5 l/m 0,0 km/h N 1,8 C 4,3 C 1,6 km/h
10.01.2018 09:00 4,0 C 84 % 1015,3 hPa 1,0 l/m 0,0 km/h N 1,6 C 4,0 C 2,4 km/h
10.01.2018 10:00 3,9 C 84 % 1015,1 hPa 1,3 l/m 0,0 km/h N 1,4 C 3,9 C 1,6 km/h
10.01.2018 11:00 3,9 C 84 % 1014,4 hPa 0,8 l/m 0,0 km/h N 1,4 C 3,9 C 1,2 km/h
10.01.2018 12:00 3,8 C 84 % 1014,1 hPa 1,0 l/m 0,0 km/h N 1,3 C 3,8 C 1,2 km/h
10.01.2018 13:00 3,8 C 84 % 1013,7 hPa 1,0 l/m 0,0 km/h N 1,3 C 3,8 C 0,0 km/h
10.01.2018 14:00 3,9 C 84 % 1013,3 hPa 0,5 l/m 0,0 km/h N 1,4 C 3,9 C 0,0 km/h
10.01.2018 15:00 3,9 C 85 % 1013,1 hPa 0,5 l/m 0,0 km/h N 1,5 C 3,9 C 0,0 km/h
10.01.2018 16:00 3,8 C 85 % 1013,0 hPa 0,3 l/m 0,0 km/h N 1,5 C 3,8 C 0,0 km/h
10.01.2018 17:00 3,8 C 84 % 1013,0 hPa 0,0 l/m 0,0 km/h N 1,4 C 3,8 C 0,0 km/h
10.01.2018 18:00 3,8 C 85 % 1013,3 hPa 0,3 l/m 0,0 km/h N 1,4 C 3,8 C 0,0 km/h
10.01.2018 19:00 3,8 C 85 % 1013,6 hPa 0,0 l/m 0,0 km/h N 1,4 C 3,8 C 0,0 km/h
10.01.2018 20:00 4,0 C 85 % 1013,8 hPa 0,0 l/m 0,0 km/h N 1,7 C 4,0 C 0,0 km/h
10.01.2018 21:00 3,9 C 85 % 1013,7 hPa 0,0 l/m 0,0 km/h N 1,6 C 3,9 C 0,0 km/h
10.01.2018 22:00 3,9 C 85 % 1013,6 hPa 0,0 l/m 0,0 km/h N 1,6 C 3,9 C 0,0 km/h
10.01.2018 23:00 3,8 C 85 % 1013,6 hPa 0,0 l/m 0,0 km/h N 1,5 C 3,8 C 0,0 km/h
11.01.2018 00:00 3,7 C 85 % 1013,4 hPa 0,0 l/m 0,0 km/h N 1,3 C 3,7 C 0,0 km/h
11.01.2018 01:00 2,8 C 84 % 1013,7 hPa 0,0 l/m 0,0 km/h N 0,4 C 2,8 C 0,0 km/h
11.01.2018 02:00 2,7 C 85 % 1013,9 hPa 0,0 l/m 0,0 km/h N 0,4 C 2,7 C 0,0 km/h
11.01.2018 03:00 3,0 C 85 % 1013,8 hPa 0,0 l/m 0,0 km/h N 0,8 C 3,0 C 0,0 km/h
11.01.2018 04:00 3,1 C 85 % 1013,8 hPa 0,0 l/m 0,0 km/h N 0,9 C 3,1 C 0,8 km/h
11.01.2018 05:00 3,2 C 85 % 1013,7 hPa 0,0 l/m 0,0 km/h N 0,9 C 3,2 C 0,0 km/h
11.01.2018 06:00 3,0 C 85 % 1014,0 hPa 0,0 l/m 0,0 km/h N 0,8 C 3,0 C 0,0 km/h
11.01.2018 07:00 2,8 C 85 % 1014,5 hPa 0,0 l/m 0,0 km/h N 0,6 C 2,8 C 0,0 km/h
11.01.2018 08:00 2,6 C 85 % 1014,8 hPa 0,0 l/m 0,0 km/h N 0,4 C 2,6 C 1,2 km/h
11.01.2018 09:00 4,1 C 85 % 1014,8 hPa 0,0 l/m 0,2 km/h N 1,8 C 4,1 C 1,6 km/h
11.01.2018 10:00 5,1 C 85 % 1015,1 hPa 0,0 l/m 0,3 km/h N 2,7 C 5,1 C 6,8 km/h
11.01.2018 11:00 6,1 C 85 % 1014,9 hPa 0,0 l/m 2,6 km/h N 3,7 C 6,1 C 9,3 km/h
11.01.2018 12:00 7,3 C 83 % 1014,6 hPa 0,0 l/m 6,3 km/h N 4,5 C 7,1 C 17,3 km/h
11.01.2018 13:00 7,7 C 78 % 1014,7 hPa 0,0 l/m 3,8 km/h N 4,1 C 7,7 C 11,7 km/h
11.01.2018 14:00 7,5 C 78 % 1015,1 hPa 0,0 l/m 1,7 km/h N 3,9 C 7,5 C 9,3 km/h
11.01.2018 15:00 7,3 C 79 % 1015,5 hPa 0,0 l/m 0,9 km/h N 3,8 C 7,3 C 6,8 km/h
11.01.2018 16:00 7,0 C 80 % 1016,2 hPa 0,0 l/m 0,4 km/h N 3,8 C 7,0 C 5,6 km/h
11.01.2018 17:00 6,7 C 81 % 1016,8 hPa 0,0 l/m 0,3 km/h N 3,7 C 6,7 C 5,6 km/h
11.01.2018 18:00 6,4 C 82 % 1017,3 hPa 0,0 l/m 0,3 km/h N 3,5 C 6,4 C 5,2 km/h
11.01.2018 19:00 6,0 C 82 % 1017,7 hPa 0,0 l/m 1,0 km/h N 3,2 C 6,0 C 8,0 km/h
11.01.2018 20:00 5,7 C 82 % 1018,0 hPa 0,0 l/m 1,4 km/h N 2,8 C 5,7 C 8,0 km/h
11.01.2018 21:00 5,5 C 82 % 1018,4 hPa 0,0 l/m 1,5 km/h N 2,7 C 5,5 C 7,6 km/h
11.01.2018 22:00 5,3 C 82 % 1018,7 hPa 0,0 l/m 1,1 km/h N 2,5 C 5,3 C 7,2 km/h
11.01.2018 23:00 5,3 C 83 % 1019,1 hPa 0,0 l/m 2,4 km/h N 2,7 C 5,3 C 9,3 km/h
12.01.2018 00:00 5,2 C 83 % 1019,3 hPa 0,0 l/m 2,3 km/h N 2,5 C 5,2 C 11,3 km/h
12.01.2018 01:00 5,2 C 83 % 1019,6 hPa 0,0 l/m 0,7 km/h N 2,5 C 5,2 C 9,2 km/h
12.01.2018 02:00 5,3 C 83 % 1019,9 hPa 0,0 l/m 1,3 km/h N 2,6 C 5,3 C 8,5 km/h
12.01.2018 03:00 5,2 C 83 % 1020,1 hPa 0,0 l/m 4,9 km/h N 2,5 C 5,2 C 16,9 km/h
12.01.2018 04:00 5,1 C 82 % 1020,5 hPa 0,3 l/m 2,4 km/h N 2,3 C 5,1 C 8,9 km/h
12.01.2018 05:00 5,0 C 83 % 1020,8 hPa 0,0 l/m 3,7 km/h N 2,4 C 5,0 C 10,9 km/h
12.01.2018 06:00 5,1 C 83 % 1021,3 hPa 0,0 l/m 4,9 km/h N 2,4 C 5,1 C 12,1 km/h
12.01.2018 07:00 5,2 C 83 % 1021,8 hPa 0,0 l/m 5,7 km/h N 2,4 C 5,2 C 14,1 km/h
12.01.2018 08:00 5,2 C 82 % 1022,4 hPa 0,0 l/m 6,7 km/h N 2,4 C 4,9 C 17,3 km/h
12.01.2018 09:00 5,2 C 82 % 1022,9 hPa 0,0 l/m 7,0 km/h N 2,4 C 4,6 C 18,5 km/h
12.01.2018 10:00 5,3 C 82 % 1023,6 hPa 0,0 l/m 6,3 km/h N 2,4 C 5,0 C 17,7 km/h
12.01.2018 11:00 5,4 C 82 % 1023,8 hPa 0,0 l/m 5,5 km/h N 2,5 C 5,2 C 12,9 km/h
12.01.2018 12:00 5,4 C 81 % 1023,6 hPa 0,0 l/m 6,4 km/h N 2,4 C 5,0 C 16,9 km/h
12.01.2018 13:00 5,4 C 81 % 1023,6 hPa 0,0 l/m 5,6 km/h N 2,4 C 5,3 C 15,3 km/h
12.01.2018 14:00 5,3 C 81 % 1023,8 hPa 0,0 l/m 4,3 km/h N 2,3 C 5,3 C 12,1 km/h
12.01.2018 15:00 5,2 C 82 % 1024,2 hPa 0,0 l/m 4,3 km/h N 2,4 C 5,2 C 10,5 km/h
12.01.2018 16:00 5,0 C 84 % 1024,8 hPa 0,0 l/m 3,1 km/h N 2,5 C 5,0 C 11,3 km/h
12.01.2018 17:00 4,7 C 83 % 1025,4 hPa 0,0 l/m 2,4 km/h N 2,1 C 4,7 C 9,7 km/h
12.01.2018 18:00 4,2 C 83 % 1025,7 hPa 0,3 l/m 2,0 km/h N 1,6 C 4,2 C 8,5 km/h
12.01.2018 19:00 3,8 C 84 % 1025,9 hPa 0,0 l/m 2,0 km/h N 1,3 C 3,8 C 8,0 km/h
12.01.2018 20:00 3,5 C 84 % 1026,2 hPa 0,0 l/m 0,9 km/h N 1,0 C 3,5 C 7,6 km/h
12.01.2018 21:00 3,4 C 84 % 1026,7 hPa 0,0 l/m 1,8 km/h N 1,0 C 3,4 C 9,7 km/h
12.01.2018 22:00 3,4 C 84 % 1026,9 hPa 0,0 l/m 1,2 km/h N 0,9 C 3,4 C 9,6 km/h
12.01.2018 23:00 3,2 C 83 % 1027,1 hPa 0,0 l/m 0,8 km/h N 0,7 C 3,2 C 8,9 km/h
13.01.2018 00:00 3,1 C 83 % 1027,0 hPa 0,0 l/m 1,1 km/h N 0,5 C 3,1 C 8,1 km/h
13.01.2018 01:00 2,6 C 84 % 1027,1 hPa 0,0 l/m 0,9 km/h N 0,0 C 2,6 C 8,4 km/h
13.01.2018 02:00 2,3 C 84 % 1027,1 hPa 0,0 l/m 1,4 km/h N -0,1 C 2,3 C 8,0 km/h
13.01.2018 03:00 2,1 C 84 % 1027,2 hPa 0,3 l/m 3,1 km/h N -0,3 C 2,1 C 9,3 km/h
13.01.2018 04:00 1,5 C 84 % 1027,0 hPa 0,0 l/m 1,3 km/h N -0,9 C 1,5 C 7,2 km/h
13.01.2018 05:00 1,1 C 84 % 1027,0 hPa 0,0 l/m 0,4 km/h N -1,3 C 1,1 C 3,6 km/h
13.01.2018 06:00 1,0 C 84 % 1027,3 hPa 0,5 l/m 1,1 km/h N -1,4 C 1,0 C 6,0 km/h
13.01.2018 07:00 0,9 C 84 % 1027,3 hPa 0,3 l/m 1,6 km/h N -1,5 C 0,9 C 8,5 km/h
13.01.2018 08:00 0,9 C 84 % 1027,4 hPa 0,0 l/m 1,4 km/h N -1,5 C 0,9 C 8,4 km/h
13.01.2018 09:00 0,9 C 84 % 1027,6 hPa 0,3 l/m 1,3 km/h N -1,5 C 0,9 C 6,8 km/h
13.01.2018 10:00 0,9 C 84 % 1027,7 hPa 0,5 l/m 1,3 km/h N -1,5 C 0,9 C 5,6 km/h
13.01.2018 11:00 1,0 C 84 % 1027,5 hPa 0,3 l/m 1,1 km/h N -1,4 C 1,0 C 5,6 km/h
13.01.2018 12:00 0,9 C 84 % 1027,0 hPa 0,3 l/m 1,3 km/h N -1,5 C 0,9 C 6,4 km/h
13.01.2018 13:00 1,1 C 84 % 1026,8 hPa 0,0 l/m 0,8 km/h N -1,3 C 1,1 C 5,6 km/h
13.01.2018 14:00 1,1 C 84 % 1026,5 hPa 0,3 l/m 0,2 km/h N -1,3 C 1,1 C 4,8 km/h
13.01.2018 15:00 1,2 C 84 % 1026,5 hPa 0,3 l/m 0,0 km/h N -1,2 C 1,2 C 1,2 km/h
13.01.2018 16:00 1,3 C 84 % 1026,6 hPa 0,5 l/m 0,1 km/h N -1,1 C 1,3 C 1,6 km/h
13.01.2018 17:00 1,7 C 84 % 1026,9 hPa 0,0 l/m 0,1 km/h N -0,7 C 1,7 C 2,0 km/h
13.01.2018 18:00 1,6 C 84 % 1026,9 hPa 0,3 l/m 0,1 km/h N -0,8 C 1,6 C 2,8 km/h
13.01.2018 19:00 1,4 C 84 % 1027,0 hPa 0,0 l/m 0,1 km/h N -1,0 C 1,4 C 4,4 km/h
13.01.2018 20:00 1,3 C 84 % 1027,1 hPa 0,3 l/m 0,1 km/h N -1,1 C 1,3 C 3,6 km/h
13.01.2018 21:00 1,2 C 85 % 1027,0 hPa 0,0 l/m 0,1 km/h N -1,1 C 1,2 C 5,6 km/h
13.01.2018 22:00 1,0 C 84 % 1026,9 hPa 0,3 l/m 0,0 km/h N -1,4 C 1,0 C 2,4 km/h
13.01.2018 23:00 0,9 C 85 % 1026,8 hPa 0,0 l/m 0,0 km/h N -1,3 C 0,9 C 0,8 km/h
14.01.2018 00:00 0,8 C 85 % 1026,4 hPa 0,0 l/m 0,0 km/h N -1,4 C 0,8 C 0,0 km/h
14.01.2018 01:00 0,7 C 84 % 1026,1 hPa 0,3 l/m 0,0 km/h N -1,7 C 0,7 C 1,2 km/h
14.01.2018 02:00 0,7 C 84 % 1026,0 hPa 0,0 l/m 0,0 km/h N -1,7 C 0,7 C 1,6 km/h
14.01.2018 03:00 0,7 C 85 % 1025,8 hPa 0,0 l/m 0,0 km/h N -1,6 C 0,7 C 2,0 km/h
14.01.2018 04:00 0,6 C 85 % 1025,4 hPa 0,3 l/m 0,0 km/h N -1,6 C 0,6 C 2,0 km/h
14.01.2018 05:00 0,4 C 85 % 1025,6 hPa 0,0 l/m 0,0 km/h N -1,8 C 0,4 C 1,6 km/h
14.01.2018 06:00 0,3 C 85 % 1025,8 hPa 0,0 l/m 0,0 km/h N -2,0 C 0,3 C 2,8 km/h
14.01.2018 07:00 0,2 C 85 % 1026,0 hPa 0,0 l/m 0,0 km/h N -2,0 C 0,2 C 2,4 km/h
14.01.2018 08:00 0,2 C 85 % 1026,3 hPa 0,0 l/m 0,0 km/h N -2,1 C 0,2 C 1,6 km/h
14.01.2018 09:00 0,1 C 85 % 1026,7 hPa 0,0 l/m 0,0 km/h N -2,1 C 0,1 C 0,8 km/h
14.01.2018 10:00 0,2 C 85 % 1027,3 hPa 0,0 l/m 0,0 km/h N -2,0 C 0,2 C 0,0 km/h
14.01.2018 11:00 0,2 C 85 % 1027,3 hPa 0,0 l/m 0,0 km/h N -2,0 C 0,2 C 0,0 km/h
14.01.2018 12:00 0,2 C 85 % 1027,2 hPa 0,0 l/m 0,6 km/h N -2,0 C 0,2 C 6,0 km/h
14.01.2018 13:00 0,6 C 84 % 1026,8 hPa 1,3 l/m 1,9 km/h N -1,8 C 0,6 C 8,0 km/h
14.01.2018 14:00 0,2 C 84 % 1026,8 hPa 0,8 l/m 1,6 km/h N -2,2 C 0,2 C 6,4 km/h
14.01.2018 15:00 0,0 C 84 % 1026,8 hPa 0,0 l/m 1,0 km/h N -2,4 C 0,0 C 6,0 km/h
14.01.2018 16:00 -0,2 C 84 % 1026,9 hPa 0,0 l/m 0,9 km/h N -2,5 C -0,2 C 4,0 km/h
14.01.2018 17:00 -0,2 C 84 % 1027,0 hPa 0,3 l/m 0,2 km/h N -2,5 C -0,2 C 2,8 km/h
14.01.2018 18:00 -0,1 C 84 % 1027,1 hPa 0,0 l/m 0,1 km/h N -2,5 C -0,1 C 4,0 km/h
14.01.2018 19:00 -0,3 C 84 % 1027,5 hPa 0,3 l/m 0,9 km/h N -2,7 C -0,3 C 5,2 km/h
14.01.2018 20:00 -0,6 C 84 % 1027,8 hPa 0,0 l/m 1,4 km/h N -3,0 C -0,6 C 7,2 km/h
14.01.2018 21:00 -1,0 C 84 % 1027,9 hPa 0,0 l/m 0,3 km/h N -3,3 C -1,0 C 3,6 km/h
14.01.2018 22:00 -1,0 C 84 % 1027,8 hPa 0,0 l/m 0,5 km/h N -3,4 C -1,0 C 4,0 km/h
14.01.2018 23:00 -1,0 C 84 % 1027,7 hPa 0,0 l/m 0,9 km/h N -3,4 C -1,0 C 5,6 km/h
Min-Datum _ 14.01.18 11.01.18 10.01.18 - 08.01.18 - 14.01.18 14.01.18 08.01.18
_ Min-Zeit 21:45 13:30 16:15 - 00:15 - 21:45 21:45 00:15
Minimum _ -1,1 C 77 % 1012,9 hPa - 0,0 km/h - -3,4 C -1,1 C 0,0 km/h
Max-Datum _ 11.01.18 12.01.18 14.01.18 10.01.18 12.01.18 - 11.01.18 11.01.18 10.01.18
_ Max-Zeit 13:00 16:30 21:00 04:15 10:00 - 12:30 13:00 01:45
Maximum _ 7,7 C 88 % 1027,9 hPa 1,3 l/m 7,6 km/h
N
- 4,6 C 7,7 C 24,1 km/h
N
Durchschnitt _ 4,0 C 84 % 1022,4 hPa #23,9 l/m 1,1 km/h N 1,5 C 3,9 C 5,3 km/h